createdAt,value
2023-04-20T00:00:53.447Z,442.00
2023-04-20T00:01:53.479Z,440.00
2023-04-20T00:02:53.705Z,440.00
2023-04-20T00:03:53.559Z,440.00
2023-04-20T00:04:53.550Z,436.00
2023-04-20T00:05:53.556Z,438.00
2023-04-20T00:06:54.138Z,436.00
2023-04-20T00:07:53.557Z,433.00
2023-04-20T00:08:53.577Z,433.00
2023-04-20T00:09:53.602Z,432.00
2023-04-20T00:10:53.653Z,430.00
2023-04-20T00:11:53.622Z,429.00
2023-04-20T00:12:53.647Z,430.00
2023-04-20T00:13:53.689Z,429.00
2023-04-20T00:14:53.798Z,429.00
2023-04-20T00:15:53.853Z,428.00
2023-04-20T00:16:53.928Z,430.00
2023-04-20T00:17:53.992Z,429.00
2023-04-20T00:18:53.998Z,431.00
2023-04-20T00:19:54.064Z,431.00
2023-04-20T00:20:54.135Z,431.00
2023-04-20T00:21:54.169Z,432.00
2023-04-20T00:22:54.192Z,432.00
2023-04-20T00:23:54.316Z,432.00
2023-04-20T00:24:54.347Z,431.00
2023-04-20T00:25:54.353Z,430.00
2023-04-20T00:26:54.412Z,431.00
2023-04-20T00:27:54.467Z,429.00
2023-04-20T00:28:54.612Z,429.00
2023-04-20T00:29:54.589Z,429.00
2023-04-20T00:30:54.763Z,429.00
2023-04-20T00:31:54.711Z,427.00
2023-04-20T00:32:54.775Z,429.00
2023-04-20T00:33:54.781Z,428.00
2023-04-20T00:34:54.773Z,430.00
2023-04-20T00:35:54.807Z,427.00
2023-04-20T00:36:54.790Z,431.00
2023-04-20T00:37:54.791Z,432.00
2023-04-20T00:38:54.846Z,431.00
2023-04-20T00:39:54.886Z,429.00
2023-04-20T00:40:54.953Z,429.00
2023-04-20T00:41:55.008Z,432.00
2023-04-20T00:42:55.049Z,433.00
2023-04-20T00:43:55.123Z,433.00
2023-04-20T00:44:55.183Z,429.00
2023-04-20T00:45:55.228Z,430.00
2023-04-20T00:46:55.273Z,432.00
2023-04-20T00:47:55.396Z,431.00
2023-04-20T00:48:55.370Z,430.00
2023-04-20T00:49:55.408Z,429.00
2023-04-20T00:50:55.503Z,428.00
2023-04-20T00:51:55.599Z,428.00
2023-04-20T00:52:55.535Z,428.00
2023-04-20T00:53:55.627Z,427.00
2023-04-20T00:54:55.638Z,429.00
2023-04-20T00:55:55.655Z,432.00
2023-04-20T00:56:55.615Z,433.00
2023-04-20T00:57:55.684Z,432.00
2023-04-20T00:58:55.708Z,434.00
2023-04-20T00:59:55.786Z,433.00
2023-04-20T01:00:55.888Z,434.00
2023-04-20T01:01:56.031Z,435.00
2023-04-20T01:02:56.032Z,437.00
2023-04-20T01:03:56.088Z,437.00
2023-04-20T01:04:56.054Z,437.00
2023-04-20T01:05:56.109Z,437.00
2023-04-20T01:06:56.117Z,434.00
2023-04-20T01:07:56.074Z,435.00
2023-04-20T01:08:56.113Z,435.00
2023-04-20T01:09:56.406Z,436.00
2023-04-20T01:10:56.432Z,434.00
2023-04-20T01:11:56.129Z,432.00
2023-04-20T01:12:56.199Z,431.00
2023-04-20T01:13:56.157Z,430.00
2023-04-20T01:14:56.178Z,432.00
2023-04-20T01:15:56.242Z,433.00
2023-04-20T01:16:56.164Z,433.00
2023-04-20T01:17:56.260Z,435.00
2023-04-20T01:18:56.230Z,432.00
2023-04-20T01:19:56.260Z,429.00
2023-04-20T01:20:56.263Z,428.00
2023-04-20T01:21:56.376Z,431.00
2023-04-20T01:22:56.417Z,432.00
2023-04-20T01:23:56.443Z,432.00
2023-04-20T01:24:56.521Z,430.00
2023-04-20T01:25:56.556Z,431.00
2023-04-20T01:26:56.554Z,430.00
2023-04-20T01:27:56.561Z,430.00
2023-04-20T01:28:56.640Z,430.00
2023-04-20T01:29:56.614Z,430.00
2023-04-20T01:30:56.676Z,431.00
2023-04-20T01:31:56.764Z,430.00
2023-04-20T01:32:56.780Z,430.00
2023-04-20T01:33:56.694Z,433.00
2023-04-20T01:34:56.722Z,432.00
2023-04-20T01:35:56.774Z,432.00
2023-04-20T01:36:56.783Z,433.00
2023-04-20T01:37:56.731Z,433.00
2023-04-20T01:38:56.760Z,433.00
2023-04-20T01:39:56.815Z,436.00
2023-04-20T01:40:56.877Z,436.00
2023-04-20T01:41:56.973Z,437.00
2023-04-20T01:42:56.920Z,438.00
2023-04-20T01:43:56.995Z,440.00
2023-04-20T01:44:57.080Z,439.00
2023-04-20T01:45:57.153Z,437.00
2023-04-20T01:46:57.228Z,437.00
2023-04-20T01:47:57.239Z,438.00
2023-04-20T01:48:57.219Z,436.00
2023-04-20T01:49:57.276Z,438.00
2023-04-20T01:50:57.400Z,435.00
2023-04-20T01:51:57.437Z,434.00
2023-04-20T01:52:57.439Z,434.00
2023-04-20T01:53:57.526Z,436.00
2023-04-20T01:54:57.579Z,437.00
2023-04-20T01:55:57.631Z,440.00
2023-04-20T01:56:57.647Z,440.00
2023-04-20T01:57:57.649Z,441.00
2023-04-20T01:58:57.702Z,439.00
2023-04-20T01:59:57.705Z,436.00
2023-04-20T02:00:57.748Z,436.00
2023-04-20T02:01:57.810Z,436.00
2023-04-20T02:02:57.871Z,433.00
2023-04-20T02:03:57.911Z,433.00
2023-04-20T02:04:57.859Z,435.00
2023-04-20T02:05:57.902Z,437.00
2023-04-20T02:06:57.973Z,436.00
2023-04-20T02:07:58.027Z,435.00
2023-04-20T02:08:58.035Z,438.00
2023-04-20T02:09:58.098Z,435.00
2023-04-20T02:10:58.144Z,435.00
2023-04-20T02:11:58.206Z,436.00
2023-04-20T02:12:58.212Z,437.00
2023-04-20T02:13:58.314Z,435.00
2023-04-20T02:14:58.326Z,434.00
2023-04-20T02:15:58.319Z,434.00
2023-04-20T02:16:58.775Z,434.00
2023-04-20T02:17:58.468Z,435.00
2023-04-20T02:18:58.508Z,436.00
2023-04-20T02:19:58.555Z,437.00
2023-04-20T02:20:58.618Z,437.00
2023-04-20T02:21:58.626Z,435.00
2023-04-20T02:22:58.641Z,433.00
2023-04-20T02:23:58.653Z,431.00
2023-04-20T02:24:58.646Z,434.00
2023-04-20T02:25:58.664Z,433.00
2023-04-20T02:26:58.676Z,432.00
2023-04-20T02:27:58.679Z,433.00
2023-04-20T02:28:58.668Z,432.00
2023-04-20T02:29:58.689Z,431.00
2023-04-20T02:31:10.662Z,430.00
2023-04-20T02:31:58.774Z,429.00
2023-04-20T02:32:58.729Z,432.00
2023-04-20T02:33:58.705Z,431.00
2023-04-20T02:34:58.711Z,430.00
2023-04-20T02:35:58.724Z,429.00
2023-04-20T02:36:58.682Z,430.00
2023-04-20T02:37:58.693Z,430.00
2023-04-20T02:38:58.687Z,432.00
2023-04-20T02:39:58.746Z,433.00
2023-04-20T02:40:58.661Z,432.00
2023-04-20T02:41:58.653Z,432.00
2023-04-20T02:42:58.736Z,433.00
2023-04-20T02:43:58.616Z,433.00
2023-04-20T02:44:58.644Z,432.00
2023-04-20T02:45:58.726Z,432.00
2023-04-20T02:46:58.664Z,433.00
2023-04-20T02:47:58.680Z,432.00
2023-04-20T02:48:58.602Z,432.00
2023-04-20T02:49:58.611Z,433.00
2023-04-20T02:50:58.596Z,434.00
2023-04-20T02:51:58.605Z,434.00
2023-04-20T02:52:58.601Z,434.00
2023-04-20T02:53:58.578Z,434.00
2023-04-20T02:54:58.545Z,435.00
2023-04-20T02:55:58.554Z,434.00
2023-04-20T02:56:58.589Z,434.00
2023-04-20T02:57:58.551Z,436.00
2023-04-20T02:58:58.499Z,440.00
2023-04-20T02:59:58.553Z,441.00
2023-04-20T03:00:58.547Z,443.00
2023-04-20T03:01:58.654Z,440.00
2023-04-20T03:02:58.614Z,439.00
2023-04-20T03:03:58.685Z,437.00
2023-04-20T03:04:58.508Z,438.00
2023-04-20T03:05:58.542Z,437.00
2023-04-20T03:06:58.498Z,437.00
2023-04-20T03:07:58.491Z,437.00
2023-04-20T03:08:58.513Z,437.00
2023-04-20T03:09:58.458Z,437.00
2023-04-20T03:10:58.469Z,436.00
2023-04-20T03:11:58.498Z,436.00
2023-04-20T03:12:58.458Z,436.00
2023-04-20T03:13:58.432Z,435.00
2023-04-20T03:14:58.425Z,433.00
2023-04-20T03:15:58.477Z,434.00
2023-04-20T03:16:58.483Z,433.00
2023-04-20T03:17:58.433Z,434.00
2023-04-20T03:18:58.405Z,437.00
2023-04-20T03:19:58.379Z,438.00
2023-04-20T03:20:58.417Z,438.00
2023-04-20T03:21:58.397Z,439.00
2023-04-20T03:22:58.371Z,439.00
2023-04-20T03:23:58.343Z,439.00
2023-04-20T03:24:58.345Z,438.00
2023-04-20T03:25:58.336Z,439.00
2023-04-20T03:26:58.361Z,437.00
2023-04-20T03:27:58.359Z,436.00
2023-04-20T03:28:58.317Z,434.00
2023-04-20T03:29:58.336Z,434.00
2023-04-20T03:30:58.318Z,433.00
2023-04-20T03:31:58.343Z,433.00
2023-04-20T03:32:58.337Z,434.00
2023-04-20T03:33:58.312Z,433.00
2023-04-20T03:34:58.327Z,433.00
2023-04-20T03:35:58.290Z,433.00
2023-04-20T03:36:58.278Z,432.00
2023-04-20T03:37:58.228Z,433.00
2023-04-20T03:38:58.291Z,434.00
2023-04-20T03:39:58.308Z,434.00
2023-04-20T03:40:58.347Z,434.00
2023-04-20T03:41:58.376Z,432.00
2023-04-20T03:42:58.346Z,432.00
2023-04-20T03:43:58.486Z,433.00
2023-04-20T03:44:58.470Z,431.00
2023-04-20T03:45:59.172Z,433.00
2023-04-20T03:46:58.567Z,436.00
2023-04-20T03:47:58.673Z,437.00
2023-04-20T03:48:58.673Z,437.00
2023-04-20T03:49:58.777Z,437.00
2023-04-20T03:50:58.793Z,436.00
2023-04-20T03:51:58.882Z,437.00
2023-04-20T03:52:58.895Z,436.00
2023-04-20T03:53:58.911Z,437.00
2023-04-20T03:54:58.953Z,434.00
2023-04-20T03:55:59.013Z,433.00
2023-04-20T03:56:59.098Z,435.00
2023-04-20T03:57:59.093Z,432.00
2023-04-20T03:58:59.146Z,431.00
2023-04-20T03:59:59.236Z,432.00
2023-04-20T04:00:59.267Z,434.00
2023-04-20T04:01:59.390Z,435.00
2023-04-20T04:02:59.506Z,436.00
2023-04-20T04:03:59.675Z,433.00
2023-04-20T04:04:59.416Z,433.00
2023-04-20T04:05:59.388Z,433.00
2023-04-20T04:06:59.443Z,434.00
2023-04-20T04:07:59.488Z,434.00
2023-04-20T04:08:59.522Z,434.00
2023-04-20T04:09:59.569Z,436.00
2023-04-20T04:10:59.643Z,437.00
2023-04-20T04:11:59.685Z,437.00
2023-04-20T04:12:59.722Z,436.00
2023-04-20T04:13:59.835Z,438.00
2023-04-20T04:14:59.887Z,439.00
2023-04-20T04:15:59.944Z,441.00
2023-04-20T04:17:00.095Z,440.00
2023-04-20T04:18:00.123Z,442.00
2023-04-20T04:19:00.110Z,443.00
2023-04-20T04:20:00.223Z,444.00
2023-04-20T04:21:00.187Z,443.00
2023-04-20T04:22:00.184Z,443.00
2023-04-20T04:23:00.288Z,441.00
2023-04-20T04:24:00.347Z,439.00
2023-04-20T04:25:00.427Z,441.00
2023-04-20T04:26:00.439Z,439.00
2023-04-20T04:27:00.476Z,438.00
2023-04-20T04:28:00.491Z,439.00
2023-04-20T04:29:00.536Z,440.00
2023-04-20T04:30:00.541Z,440.00
2023-04-20T04:31:00.593Z,441.00
2023-04-20T04:32:00.646Z,442.00
2023-04-20T04:33:00.632Z,440.00
2023-04-20T04:34:00.558Z,441.00
2023-04-20T04:35:00.567Z,441.00
2023-04-20T04:36:00.697Z,441.00
2023-04-20T04:37:00.686Z,443.00
2023-04-20T04:38:00.683Z,442.00
2023-04-20T04:39:00.716Z,445.00
2023-04-20T04:40:00.703Z,446.00
2023-04-20T04:41:00.717Z,444.00
2023-04-20T04:42:00.926Z,446.00
2023-04-20T04:43:00.890Z,447.00
2023-04-20T04:44:00.913Z,446.00
2023-04-20T04:45:01.039Z,445.00
2023-04-20T04:46:01.061Z,445.00
2023-04-20T04:47:01.088Z,445.00
2023-04-20T04:48:01.248Z,444.00
2023-04-20T04:49:01.323Z,445.00
2023-04-20T04:50:01.140Z,445.00
2023-04-20T04:51:01.250Z,445.00
2023-04-20T04:52:01.251Z,445.00
2023-04-20T04:53:01.202Z,445.00
2023-04-20T04:54:01.217Z,442.00
2023-04-20T04:55:01.244Z,441.00
2023-04-20T04:56:01.302Z,440.00
2023-04-20T04:57:01.338Z,439.00
2023-04-20T04:58:01.440Z,440.00
2023-04-20T04:59:01.441Z,439.00
2023-04-20T05:00:01.536Z,441.00
2023-04-20T05:02:29.105Z,432.00
2023-04-20T05:03:21.354Z,431.00
2023-04-20T05:04:21.313Z,429.00
2023-04-20T05:05:21.260Z,427.00
2023-04-20T05:06:21.241Z,430.00
2023-04-20T05:07:21.299Z,428.00
2023-04-20T05:08:21.273Z,429.00
2023-04-20T05:09:21.227Z,431.00
2023-04-20T05:10:21.230Z,432.00
2023-04-20T05:11:21.194Z,431.00
2023-04-20T05:12:21.253Z,430.00
2023-04-20T05:13:21.196Z,431.00
2023-04-20T05:14:21.167Z,433.00
2023-04-20T05:15:21.180Z,432.00
2023-04-20T05:16:21.327Z,432.00
2023-04-20T05:17:21.204Z,436.00
2023-04-20T05:18:21.238Z,437.00
2023-04-20T05:19:21.217Z,438.00
2023-04-20T05:20:21.250Z,439.00
2023-04-20T05:21:21.315Z,441.00
2023-04-20T05:22:21.372Z,440.00
2023-04-20T05:23:21.417Z,440.00
2023-04-20T05:24:21.500Z,439.00
2023-04-20T05:25:21.592Z,437.00
2023-04-20T05:26:21.607Z,439.00
2023-04-20T05:27:21.666Z,439.00
2023-04-20T05:28:21.678Z,438.00
2023-04-20T05:29:21.715Z,437.00
2023-04-20T05:30:22.226Z,438.00
2023-04-20T05:31:21.746Z,436.00
2023-04-20T05:32:22.006Z,438.00
2023-04-20T05:33:21.802Z,438.00
2023-04-20T05:34:21.914Z,438.00
2023-04-20T05:35:21.997Z,440.00
2023-04-20T05:36:21.976Z,439.00
2023-04-20T05:37:22.409Z,440.00
2023-04-20T05:38:22.096Z,441.00
2023-04-20T05:39:22.160Z,442.00
2023-04-20T05:40:22.052Z,444.00
2023-04-20T05:41:22.066Z,444.00
2023-04-20T05:42:22.442Z,446.00
2023-04-20T05:43:22.155Z,446.00
2023-04-20T05:44:22.230Z,444.00
2023-04-20T05:45:22.244Z,444.00
2023-04-20T05:47:42.265Z,430.00
2023-04-20T05:48:42.087Z,433.00
2023-04-20T05:49:42.286Z,433.00
2023-04-20T05:50:42.042Z,435.00
2023-04-20T05:51:42.012Z,435.00
2023-04-20T05:52:42.131Z,435.00
2023-04-20T05:53:42.000Z,436.00
2023-04-20T05:54:42.026Z,435.00
2023-04-20T05:55:41.999Z,433.00
2023-04-20T05:56:41.949Z,432.00
2023-04-20T05:57:42.073Z,432.00
2023-04-20T05:58:41.978Z,431.00
2023-04-20T05:59:42.049Z,433.00
2023-04-20T06:00:42.000Z,433.00
2023-04-20T06:01:41.975Z,432.00
2023-04-20T06:02:42.085Z,432.00
2023-04-20T06:03:42.081Z,432.00
2023-04-20T06:04:42.104Z,433.00
2023-04-20T06:05:41.896Z,431.00
2023-04-20T06:06:41.890Z,432.00
2023-04-20T06:07:41.916Z,432.00
2023-04-20T06:08:41.948Z,432.00
2023-04-20T06:09:41.925Z,434.00
2023-04-20T06:10:41.898Z,434.00
2023-04-20T06:11:41.858Z,436.00
2023-04-20T06:12:41.869Z,435.00
2023-04-20T06:13:41.870Z,433.00
2023-04-20T06:14:43.990Z,432.00
2023-04-20T06:15:44.574Z,431.00
2023-04-20T06:16:42.301Z,430.00
2023-04-20T06:17:42.394Z,428.00
2023-04-20T06:18:42.314Z,428.00
2023-04-20T06:19:42.332Z,426.00
2023-04-20T06:20:42.436Z,425.00
2023-04-20T06:21:42.402Z,427.00
2023-04-20T06:22:42.678Z,425.00
2023-04-20T06:23:42.958Z,425.00
2023-04-20T06:24:42.546Z,426.00
2023-04-20T06:25:42.580Z,425.00
2023-04-20T06:26:42.679Z,424.00
2023-04-20T06:27:43.221Z,425.00
2023-04-20T06:28:42.689Z,424.00
2023-04-20T06:29:42.707Z,422.00
2023-04-20T06:30:42.877Z,419.00
2023-04-20T06:31:42.842Z,419.00
2023-04-20T06:32:42.910Z,421.00
2023-04-20T06:33:43.430Z,424.00
2023-04-20T06:34:43.005Z,423.00
2023-04-20T06:35:43.019Z,424.00
2023-04-20T06:36:43.039Z,425.00
2023-04-20T06:37:43.160Z,425.00
2023-04-20T06:38:43.139Z,425.00
2023-04-20T06:39:43.170Z,427.00
2023-04-20T06:40:43.162Z,426.00
2023-04-20T06:41:43.177Z,428.00
2023-04-20T06:42:43.235Z,428.00
2023-04-20T06:43:43.338Z,428.00
2023-04-20T06:44:43.357Z,427.00
2023-04-20T06:45:43.469Z,428.00
2023-04-20T06:46:43.485Z,430.00
2023-04-20T06:47:43.797Z,428.00
2023-04-20T06:48:43.688Z,430.00
2023-04-20T06:49:43.491Z,433.00
2023-04-20T06:50:43.535Z,430.00
2023-04-20T06:51:43.554Z,429.00
2023-04-20T06:52:43.574Z,426.00
2023-04-20T06:53:43.753Z,423.00
2023-04-20T06:54:43.670Z,421.00
2023-04-20T06:55:43.801Z,420.00
2023-04-20T06:56:43.759Z,421.00
2023-04-20T06:57:43.956Z,422.00
2023-04-20T06:58:44.108Z,421.00
2023-04-20T06:59:43.916Z,418.00
2023-04-20T07:00:43.921Z,419.00
2023-04-20T07:01:43.956Z,420.00
2023-04-20T07:02:44.083Z,422.00
2023-04-20T07:03:44.323Z,421.00
2023-04-20T07:04:44.069Z,419.00
2023-04-20T07:05:44.074Z,421.00
2023-04-20T07:06:44.139Z,423.00
2023-04-20T07:07:44.141Z,423.00
2023-04-20T07:08:44.675Z,423.00
2023-04-20T07:09:44.207Z,421.00
2023-04-20T07:10:44.356Z,420.00
2023-04-20T07:11:44.251Z,423.00
2023-04-20T07:12:44.406Z,426.00
2023-04-20T07:13:44.412Z,429.00
2023-04-20T07:14:44.481Z,430.00
2023-04-20T07:15:44.489Z,432.00
2023-04-20T07:16:44.582Z,433.00
2023-04-20T07:17:44.573Z,430.00
2023-04-20T07:18:44.662Z,427.00
2023-04-20T07:19:44.559Z,428.00
2023-04-20T07:20:44.629Z,425.00
2023-04-20T07:21:44.631Z,425.00
2023-04-20T07:22:44.681Z,428.00
2023-04-20T07:23:45.386Z,427.00
2023-04-20T07:24:44.822Z,428.00
2023-04-20T07:25:44.904Z,428.00
2023-04-20T07:26:44.870Z,428.00
2023-04-20T07:27:44.941Z,426.00
2023-04-20T07:28:44.988Z,425.00
2023-04-20T07:29:45.048Z,427.00
2023-04-20T07:30:45.114Z,428.00
2023-04-20T07:31:45.077Z,430.00
2023-04-20T07:32:45.177Z,431.00
2023-04-20T07:33:45.592Z,430.00
2023-04-20T07:34:45.186Z,430.00
2023-04-20T07:35:45.202Z,425.00
2023-04-20T07:36:45.242Z,424.00
2023-04-20T07:37:45.343Z,427.00
2023-04-20T07:38:45.619Z,424.00
2023-04-20T07:39:45.330Z,425.00
2023-04-20T07:40:45.431Z,427.00
2023-04-20T07:41:45.391Z,428.00
2023-04-20T07:42:45.407Z,429.00
2023-04-20T07:43:45.450Z,430.00
2023-04-20T07:44:45.560Z,431.00
2023-04-20T07:45:45.630Z,433.00
2023-04-20T07:46:45.581Z,432.00
2023-04-20T07:47:46.255Z,432.00
2023-04-20T07:48:45.648Z,430.00
2023-04-20T07:49:45.734Z,432.00
2023-04-20T07:50:45.655Z,432.00
2023-04-20T07:51:45.709Z,432.00
2023-04-20T07:52:45.797Z,433.00
2023-04-20T07:53:45.784Z,434.00
2023-04-20T07:54:45.786Z,435.00
2023-04-20T07:55:45.705Z,434.00
2023-04-20T07:56:46.180Z,435.00
2023-04-20T07:57:45.744Z,434.00
2023-04-20T07:58:46.112Z,431.00
2023-04-20T07:59:45.713Z,431.00
2023-04-20T08:00:45.786Z,430.00
2023-04-20T08:01:45.937Z,432.00
2023-04-20T08:02:45.854Z,432.00
2023-04-20T08:03:46.303Z,433.00
2023-04-20T08:04:46.014Z,433.00
2023-04-20T08:05:45.926Z,431.00
2023-04-20T08:06:45.882Z,432.00
2023-04-20T08:07:45.962Z,433.00
2023-04-20T08:08:45.959Z,434.00
2023-04-20T08:09:53.625Z,433.00
2023-04-20T08:10:46.678Z,433.00
2023-04-20T08:11:46.029Z,430.00
2023-04-20T08:12:45.994Z,429.00
2023-04-20T08:13:46.520Z,429.00
2023-04-20T08:14:46.027Z,429.00
2023-04-20T08:15:46.021Z,429.00
2023-04-20T08:16:45.964Z,429.00
2023-04-20T08:17:46.659Z,432.00
2023-04-20T08:18:45.944Z,428.00
2023-04-20T08:19:46.269Z,427.00
2023-04-20T08:20:45.945Z,428.00
2023-04-20T08:21:45.857Z,426.00
2023-04-20T08:22:45.883Z,427.00
2023-04-20T08:23:46.132Z,430.00
2023-04-20T08:24:46.328Z,431.00
2023-04-20T08:25:45.861Z,432.00
2023-04-20T08:26:46.645Z,431.00
2023-04-20T08:27:45.845Z,428.00
2023-04-20T08:28:45.905Z,428.00
2023-04-20T08:29:45.915Z,428.00
2023-04-20T08:30:46.020Z,428.00
2023-04-20T08:31:46.171Z,428.00
2023-04-20T08:32:46.047Z,426.00
2023-04-20T08:33:46.395Z,427.00
2023-04-20T08:34:46.146Z,428.00
2023-04-20T08:35:46.187Z,429.00
2023-04-20T08:36:46.171Z,430.00
2023-04-20T08:37:46.203Z,433.00
2023-04-20T08:38:46.207Z,435.00
2023-04-20T08:39:46.294Z,435.00
2023-04-20T08:40:46.217Z,434.00
2023-04-20T08:41:46.207Z,435.00
2023-04-20T08:42:46.348Z,435.00
2023-04-20T08:43:46.358Z,437.00
2023-04-20T08:44:46.395Z,438.00
2023-04-20T08:45:46.431Z,436.00
2023-04-20T08:46:46.499Z,435.00
2023-04-20T08:47:46.567Z,436.00
2023-04-20T08:48:46.670Z,434.00
2023-04-20T08:49:46.568Z,434.00
2023-04-20T08:50:46.709Z,436.00
2023-04-20T08:51:46.678Z,434.00
2023-04-20T08:52:47.146Z,440.00
2023-04-20T08:53:47.140Z,438.00
2023-04-20T08:54:56.060Z,438.00
2023-04-20T08:55:47.720Z,435.00
2023-04-20T08:56:46.737Z,433.00
2023-04-20T08:57:46.754Z,434.00
2023-04-20T08:58:46.730Z,430.00
2023-04-20T08:59:46.757Z,429.00
2023-04-20T09:00:46.726Z,428.00
2023-04-20T09:01:46.794Z,431.00
2023-04-20T09:02:46.808Z,430.00
2023-04-20T09:03:46.983Z,434.00
2023-04-20T09:04:47.294Z,434.00
2023-04-20T09:05:46.674Z,431.00
2023-04-20T09:06:46.676Z,429.00
2023-04-20T09:07:46.712Z,428.00
2023-04-20T09:08:46.697Z,430.00
2023-04-20T09:09:46.692Z,429.00
2023-04-20T09:10:46.752Z,427.00
2023-04-20T09:11:46.821Z,427.00
2023-04-20T09:12:46.806Z,427.00
2023-04-20T09:13:46.860Z,427.00
2023-04-20T09:14:46.886Z,428.00
2023-04-20T09:15:46.944Z,431.00
2023-04-20T09:16:54.658Z,433.00
2023-04-20T09:17:47.006Z,430.00
2023-04-20T09:18:46.947Z,431.00
2023-04-20T09:19:46.971Z,433.00
2023-04-20T09:20:46.906Z,433.00
2023-04-20T09:21:46.916Z,434.00
2023-04-20T09:22:46.921Z,432.00
2023-04-20T09:23:46.892Z,434.00
2023-04-20T09:24:47.261Z,429.00
2023-04-20T09:25:46.909Z,433.00
2023-04-20T09:26:46.941Z,427.00
2023-04-20T09:27:46.861Z,425.00
2023-04-20T09:28:46.922Z,427.00
2023-04-20T09:29:46.863Z,427.00
2023-04-20T09:30:46.892Z,428.00
2023-04-20T09:31:47.013Z,433.00
2023-04-20T09:32:46.928Z,432.00
2023-04-20T09:33:46.858Z,430.00
2023-04-20T09:34:46.853Z,430.00
2023-04-20T09:35:46.890Z,430.00
2023-04-20T09:36:47.034Z,430.00
2023-04-20T09:37:46.962Z,430.00
2023-04-20T09:38:46.924Z,434.00
2023-04-20T09:39:47.040Z,432.00
2023-04-20T09:40:47.043Z,433.00
2023-04-20T09:41:47.160Z,431.00
2023-04-20T09:42:47.151Z,431.00
2023-04-20T09:43:47.149Z,432.00
2023-04-20T09:44:47.767Z,431.00
2023-04-20T09:45:47.726Z,436.00
2023-04-20T09:46:47.327Z,436.00
2023-04-20T09:47:47.335Z,431.00
2023-04-20T09:48:47.303Z,427.00
2023-04-20T09:49:47.378Z,430.00
2023-04-20T09:50:50.054Z,430.00
2023-04-20T09:51:47.445Z,429.00
2023-04-20T09:52:47.386Z,431.00
2023-04-20T09:53:47.348Z,432.00
2023-04-20T09:54:47.409Z,431.00
2023-04-20T09:55:47.353Z,430.00
2023-04-20T09:56:47.366Z,431.00
2023-04-20T09:57:47.364Z,429.00
2023-04-20T09:58:47.330Z,428.00
2023-04-20T09:59:47.820Z,428.00
2023-04-20T10:00:47.378Z,427.00
2023-04-20T10:01:47.523Z,430.00
2023-04-20T10:02:47.401Z,435.00
2023-04-20T10:03:47.457Z,435.00
2023-04-20T10:04:47.384Z,434.00
2023-04-20T10:05:47.277Z,432.00
2023-04-20T10:06:47.286Z,429.00
2023-04-20T10:07:54.925Z,428.00
2023-04-20T10:08:47.219Z,431.00
2023-04-20T10:09:47.859Z,427.00
2023-04-20T10:10:47.248Z,425.00
2023-04-20T10:11:53.299Z,424.00
2023-04-20T10:12:48.238Z,423.00
2023-04-20T10:13:47.190Z,425.00
2023-04-20T10:14:47.218Z,428.00
2023-04-20T10:15:47.697Z,427.00
2023-04-20T10:16:47.231Z,428.00
2023-04-20T10:17:47.229Z,427.00
2023-04-20T10:18:47.294Z,428.00
2023-04-20T10:19:47.144Z,430.00
2023-04-20T10:20:47.258Z,430.00
2023-04-20T10:21:47.204Z,431.00
2023-04-20T10:22:47.213Z,426.00
2023-04-20T10:23:47.216Z,425.00
2023-04-20T10:24:47.364Z,425.00
2023-04-20T10:25:47.342Z,425.00
2023-04-20T10:26:47.393Z,423.00
2023-04-20T10:27:47.300Z,425.00
2023-04-20T10:28:47.355Z,425.00
2023-04-20T10:29:47.364Z,423.00
2023-04-20T10:30:47.739Z,425.00
2023-04-20T10:31:47.432Z,425.00
2023-04-20T10:32:47.441Z,426.00
2023-04-20T10:33:47.435Z,428.00
2023-04-20T10:34:47.501Z,429.00
2023-04-20T10:35:47.825Z,433.00
2023-04-20T10:36:47.537Z,434.00
2023-04-20T10:37:47.661Z,434.00
2023-04-20T10:38:47.832Z,432.00
2023-04-20T10:39:47.744Z,430.00
2023-04-20T10:40:48.276Z,430.00
2023-04-20T10:41:47.774Z,431.00
2023-04-20T10:42:47.865Z,433.00
2023-04-20T10:43:47.773Z,436.00
2023-04-20T10:44:47.879Z,433.00
2023-04-20T10:45:48.202Z,429.00
2023-04-20T10:46:47.840Z,425.00
2023-04-20T10:47:47.929Z,425.00
2023-04-20T10:48:47.861Z,425.00
2023-04-20T10:49:48.486Z,431.00
2023-04-20T10:50:47.930Z,432.00
2023-04-20T10:51:47.933Z,429.00
2023-04-20T10:52:47.961Z,429.00
2023-04-20T10:53:47.922Z,426.00
2023-04-20T10:54:47.914Z,424.00
2023-04-20T10:55:48.264Z,423.00
2023-04-20T10:56:49.760Z,421.00
2023-04-20T10:57:48.070Z,422.00
2023-04-20T10:58:48.081Z,422.00
2023-04-20T10:59:48.131Z,422.00
2023-04-20T11:00:48.150Z,421.00
2023-04-20T11:01:48.331Z,420.00
2023-04-20T11:02:48.323Z,421.00
2023-04-20T11:03:48.424Z,421.00
2023-04-20T11:04:48.371Z,418.00
2023-04-20T11:05:49.074Z,425.00
2023-04-20T11:06:48.592Z,425.00
2023-04-20T11:07:48.461Z,430.00
2023-04-20T11:08:48.458Z,428.00
2023-04-20T11:09:48.514Z,432.00
2023-04-20T11:10:48.796Z,432.00
2023-04-20T11:11:48.513Z,431.00
2023-04-20T11:12:48.580Z,429.00
2023-04-20T11:13:48.595Z,432.00
2023-04-20T11:14:48.617Z,429.00
2023-04-20T11:15:48.837Z,429.00
2023-04-20T11:16:51.707Z,431.00
2023-04-20T11:17:49.106Z,431.00
2023-04-20T11:18:48.652Z,431.00
2023-04-20T11:19:48.686Z,432.00
2023-04-20T11:20:48.779Z,431.00
2023-04-20T11:21:48.645Z,430.00
2023-04-20T11:22:48.720Z,431.00
2023-04-20T11:23:48.640Z,430.00
2023-04-20T11:24:48.703Z,432.00
2023-04-20T11:25:48.626Z,434.00
2023-04-20T11:26:48.613Z,436.00
2023-04-20T11:27:48.726Z,434.00
2023-04-20T11:28:48.624Z,434.00
2023-04-20T11:29:48.589Z,435.00
2023-04-20T11:30:48.911Z,436.00
2023-04-20T11:31:48.751Z,434.00
2023-04-20T11:32:48.807Z,431.00
2023-04-20T11:33:48.661Z,434.00
2023-04-20T11:34:55.941Z,433.00
2023-04-20T11:35:49.764Z,432.00
2023-04-20T11:36:48.569Z,431.00
2023-04-20T11:37:48.546Z,435.00
2023-04-20T11:38:48.545Z,436.00
2023-04-20T11:39:48.516Z,436.00
2023-04-20T11:40:48.524Z,437.00
2023-04-20T11:41:48.777Z,432.00
2023-04-20T11:42:48.815Z,434.00
2023-04-20T11:43:48.498Z,436.00
2023-04-20T11:44:48.555Z,436.00
2023-04-20T11:45:48.669Z,435.00
2023-04-20T11:46:48.504Z,435.00
2023-04-20T11:47:48.482Z,432.00
2023-04-20T11:48:48.505Z,432.00
2023-04-20T11:49:48.464Z,433.00
2023-04-20T11:50:48.452Z,429.00
2023-04-20T11:51:48.486Z,431.00
2023-04-20T11:52:48.488Z,431.00
2023-04-20T11:53:48.453Z,431.00
2023-04-20T11:54:48.407Z,432.00
2023-04-20T11:55:48.404Z,430.00
2023-04-20T11:56:48.423Z,429.00
2023-04-20T11:57:48.425Z,429.00
2023-04-20T11:58:48.381Z,431.00
2023-04-20T11:59:48.412Z,431.00
2023-04-20T12:00:48.420Z,430.00
2023-04-20T12:01:48.545Z,430.00
2023-04-20T12:02:48.453Z,431.00
2023-04-20T12:03:48.625Z,428.00
2023-04-20T12:04:48.464Z,429.00
2023-04-20T12:05:48.396Z,428.00
2023-04-20T12:06:48.462Z,429.00
2023-04-20T12:07:48.334Z,433.00
2023-04-20T12:08:48.318Z,431.00
2023-04-20T12:09:48.328Z,431.00
2023-04-20T12:10:48.371Z,431.00
2023-04-20T12:11:48.359Z,434.00
2023-04-20T12:12:48.301Z,432.00
2023-04-20T12:13:48.304Z,434.00
2023-04-20T12:14:48.274Z,433.00
2023-04-20T12:15:48.364Z,431.00
2023-04-20T12:16:48.426Z,429.00
2023-04-20T12:17:48.410Z,429.00
2023-04-20T12:18:48.459Z,428.00
2023-04-20T12:19:48.456Z,427.00
2023-04-20T12:20:48.431Z,427.00
2023-04-20T12:21:48.494Z,426.00
2023-04-20T12:22:48.580Z,427.00
2023-04-20T12:23:48.475Z,426.00
2023-04-20T12:24:48.684Z,427.00
2023-04-20T12:25:48.567Z,426.00
2023-04-20T12:26:48.556Z,426.00
2023-04-20T12:27:50.001Z,424.00
2023-04-20T12:28:48.626Z,425.00
2023-04-20T12:29:48.690Z,424.00
2023-04-20T12:30:48.726Z,422.00
2023-04-20T12:31:49.251Z,422.00